Time;durP1;ratioP1;P1;durP2;ratioP2;P2;SDS_P1;SDS_P2;PMS_P1;PMS_P2;Temp;Humidity;BMP_temperature;BMP_pressure;BME280_temperature;BME280_humidity;BME280_pressure;Samples;Min_cycle;Max_cycle;Signal;HPM_P1;HPM_P2
2023/10/12 00:02:00;;;;;;;6.50;4.22;;;11.10;99.90;;;;;;5014082;28;20045;-67
2023/10/12 00:04:41;;;;;;;7.13;3.90;;;11.20;99.90;;;;;;5021898;28;20034;-69
2023/10/12 00:07:10;;;;;;;5.73;3.93;;;11.30;99.90;;;;;;5014009;28;20573;-66
2023/10/12 00:09:36;;;;;;;5.30;4.03;;;11.20;99.90;;;;;;5011531;28;21097;-66
2023/10/12 00:12:07;;;;;;;7.80;4.30;;;11.10;99.90;;;;;;5013732;28;20112;-66
2023/10/12 00:14:33;;;;;;;8.02;3.90;;;11.10;99.90;;;;;;5019332;28;20136;-68
2023/10/12 00:17:00;;;;;;;5.15;3.65;;;11.20;99.90;;;;;;5014156;28;20498;-68
2023/10/12 00:19:26;;;;;;;12.88;4.45;;;11.40;99.90;;;;;;5018256;28;20045;-67
2023/10/12 00:22:00;;;;;;;5.72;4.45;;;11.50;99.90;;;;;;5011492;28;20094;-66
2023/10/12 00:24:27;;;;;;;5.18;4.03;;;11.50;99.90;;;;;;5021417;28;20063;-66
2023/10/12 00:26:53;;;;;;;7.35;3.75;;;11.60;99.90;;;;;;5020822;28;20073;-66
2023/10/12 00:29:20;;;;;;;6.15;4.13;;;11.60;99.90;;;;;;5016481;28;20041;-66
2023/10/12 00:31:47;;;;;;;8.57;4.10;;;11.60;99.90;;;;;;5012309;28;20029;-66
2023/10/12 00:34:14;;;;;;;6.40;3.60;;;11.50;99.90;;;;;;5011194;28;20036;-67
2023/10/12 00:36:41;;;;;;;7.60;3.95;;;11.50;99.90;;;;;;5017355;28;21327;-66
2023/10/12 00:39:11;;;;;;;6.05;4.60;;;11.50;99.90;;;;;;5017312;28;20138;-66
2023/10/12 00:41:37;;;;;;;5.75;4.22;;;11.50;99.90;;;;;;5020570;28;20037;-67
2023/10/12 00:46:40;;;;;;;7.30;4.10;;;11.60;99.90;;;;;;5018130;28;20041;-67
2023/10/12 00:49:22;;;;;;;6.80;4.30;;;11.50;99.90;;;;;;5020260;28;20033;-67
2023/10/12 00:51:52;;;;;;;6.72;4.25;;;11.50;99.90;;;;;;5015140;28;20040;-66
2023/10/12 00:54:27;;;;;;;3.80;3.33;;;11.40;99.90;;;;;;5022625;28;20053;-66
2023/10/12 00:56:59;;;;;;;7.78;4.00;;;11.20;99.90;;;;;;5021717;28;20112;-67
2023/10/12 00:59:31;;;;;;;7.50;3.70;;;11.10;99.90;;;;;;5020006;28;20652;-67
2023/10/12 01:02:00;;;;;;;4.32;3.92;;;11.10;99.90;;;;;;5004974;28;20045;-66
2023/10/12 01:04:27;;;;;;;7.97;3.42;;;11.00;99.90;;;;;;5021826;28;20041;-66
2023/10/12 01:06:59;;;;;;;5.65;3.72;;;10.90;99.90;;;;;;4999341;28;20127;-66
2023/10/12 01:09:39;;;;;;;5.90;3.95;;;11.00;99.90;;;;;;5002595;28;20048;-66
2023/10/12 01:12:12;;;;;;;5.03;4.47;;;11.10;99.90;;;;;;5026289;28;20607;-66
2023/10/12 01:14:43;;;;;;;8.10;4.88;;;11.20;99.90;;;;;;5024352;28;20779;-66
2023/10/12 01:17:24;;;;;;;5.20;3.97;;;11.40;99.90;;;;;;5022873;28;20091;-66
2023/10/12 01:19:51;;;;;;;6.03;4.53;;;11.40;99.90;;;;;;5019617;28;20033;-66
2023/10/12 01:22:25;;;;;;;7.72;4.43;;;11.40;99.90;;;;;;5019271;28;20581;-66
2023/10/12 01:27:22;;;;;;;5.15;4.15;;;11.40;99.90;;;;;;5024165;28;21395;-66
2023/10/12 01:29:48;;;;;;;7.18;4.78;;;11.50;99.90;;;;;;5017695;28;20112;-66
2023/10/12 01:34:51;;;;;;;5.63;3.65;;;11.40;99.90;;;;;;5024313;28;20421;-66
2023/10/12 01:40:11;;;;;;;5.50;3.90;;;11.20;99.90;;;;;;5021566;28;20045;-66
2023/10/12 01:42:50;;;;;;;7.03;4.30;;;11.20;99.90;;;;;;5020584;28;20132;-66
2023/10/12 01:48:05;;;;;;;8.20;5.45;;;11.30;99.90;;;;;;5026709;28;20037;-66
2023/10/12 01:50:33;;;;;;;6.65;5.20;;;11.30;99.90;;;;;;5013091;28;20048;-67
2023/10/12 01:53:00;;;;;;;6.80;4.50;;;11.40;99.90;;;;;;5021907;28;20045;-66
2023/10/12 01:55:30;;;;;;;5.10;4.10;;;11.40;99.90;;;;;;5022535;28;20072;-66
2023/10/12 01:57:59;;;;;;;7.38;4.65;;;11.40;99.90;;;;;;5010522;28;20060;-66
2023/10/12 02:00:39;;;;;;;6.90;4.43;;;11.30;99.90;;;;;;5020532;28;20591;-66
2023/10/12 02:03:31;;;;;;;6.45;5.13;;;11.30;99.90;;;;;;5012963;28;20049;-66
2023/10/12 02:05:59;;;;;;;8.40;6.22;;;11.30;99.90;;;;;;5020827;28;20049;-66
2023/10/12 02:08:45;;;;;;;;;;;11.30;99.90;;;;;;5020287;28;20339;-66
2023/10/12 02:13:47;;;;;;;;;;;11.60;99.90;;;;;;5020329;28;21112;-66
2023/10/12 02:16:23;;;;;;;9.00;5.78;;;11.70;99.90;;;;;;5016164;28;19913;-66
2023/10/12 02:18:50;;;;;;;6.65;6.05;;;11.70;99.90;;;;;;5022126;28;20398;-66
2023/10/12 02:21:20;;;;;;;9.05;6.68;;;11.80;99.90;;;;;;5015987;28;20128;-66
2023/10/12 02:26:35;;;;;;;12.82;7.65;;;11.90;99.90;;;;;;5017022;28;20039;-68
2023/10/12 02:29:21;;;;;;;8.63;6.72;;;11.90;99.90;;;;;;5010850;28;20125;-69
2023/10/12 02:34:17;;;;;;;9.45;7.20;;;12.00;99.90;;;;;;5022132;28;20084;-67
2023/10/12 02:39:28;;;;;;;8.32;7.47;;;12.10;99.90;;;;;;5017230;28;20045;-67
2023/10/12 02:42:12;;;;;;;15.77;8.07;;;12.10;99.90;;;;;;5022041;28;20959;-67
2023/10/12 02:44:51;;;;;;;9.13;7.75;;;12.10;99.90;;;;;;5011676;28;20046;-67
2023/10/12 02:47:23;;;;;;;8.38;7.47;;;12.10;99.90;;;;;;5013070;28;20029;-67
2023/10/12 02:49:49;;;;;;;;;;;12.10;99.90;;;;;;5013656;28;20764;-68
2023/10/12 02:52:16;;;;;;;8.60;6.93;;;12.10;99.90;;;;;;4999572;28;20025;-67
2023/10/12 02:54:55;;;;;;;12.13;7.18;;;12.10;99.90;;;;;;5013129;28;20057;-67
2023/10/12 02:57:27;;;;;;;10.80;7.05;;;12.00;99.90;;;;;;5016924;28;20095;-67
2023/10/12 03:00:32;;;;;;;7.68;6.95;;;12.00;99.90;;;;;;5019781;28;20405;-67
2023/10/12 03:03:05;;;;;;;7.15;6.45;;;11.90;99.90;;;;;;5022755;28;20029;-67
2023/10/12 03:05:44;;;;;;;10.05;7.00;;;11.90;99.90;;;;;;5013838;28;20017;-66
2023/10/12 03:08:13;;;;;;;7.93;6.18;;;11.90;99.90;;;;;;5034909;28;20048;-67
2023/10/12 03:10:50;;;;;;;7.35;6.63;;;11.90;99.90;;;;;;5016985;28;20129;-67
2023/10/12 03:13:25;;;;;;;8.75;7.43;;;11.90;99.90;;;;;;5027538;28;20037;-67
2023/10/12 03:15:57;;;;;;;5.40;4.90;;;11.80;99.90;;;;;;5031012;28;20721;-67
2023/10/12 03:18:26;;;;;;;6.25;5.15;;;11.70;99.90;;;;;;5022606;28;20124;-67
2023/10/12 03:21:11;;;;;;;6.13;5.22;;;11.40;99.90;;;;;;5016579;28;20044;-67
2023/10/12 03:23:38;;;;;;;6.63;5.93;;;11.30;99.90;;;;;;5017178;28;20045;-67
2023/10/12 03:29:32;;;;;;;8.27;6.50;;;11.30;99.90;;;;;;5031148;28;20150;-67
2023/10/12 03:34:35;;;;;;;6.72;4.22;;;11.20;99.90;;;;;;5018224;28;21911;-67
2023/10/12 03:37:03;;;;;;;5.22;4.07;;;11.10;99.90;;;;;;5028487;28;20125;-67
2023/10/12 03:39:32;;;;;;;4.88;3.90;;;10.90;99.90;;;;;;5025103;28;20033;-67
2023/10/12 03:42:42;;;;;;;5.25;4.20;;;10.80;99.90;;;;;;5010251;28;20053;-67
2023/10/12 03:45:13;;;;;;;8.00;5.95;;;10.70;99.90;;;;;;5026508;28;20072;-67
2023/10/12 03:50:26;;;;;;;8.48;6.93;;;10.80;99.90;;;;;;5030315;28;20085;-67
2023/10/12 03:52:53;;;;;;;8.52;5.25;;;10.90;99.90;;;;;;5027839;28;20132;-67
2023/10/12 03:55:28;;;;;;;6.63;4.20;;;10.90;99.90;;;;;;5023101;28;20124;-67
2023/10/12 03:58:04;;;;;;;6.28;3.30;;;10.80;99.90;;;;;;5004445;28;20802;-67
2023/10/12 04:00:34;;;;;;;5.35;4.55;;;10.50;99.90;;;;;;5027664;28;20049;-67
2023/10/12 04:03:06;;;;;;;6.80;5.72;;;10.30;99.90;;;;;;5025465;28;20045;-67
2023/10/12 04:18:42;;;;;;;5.63;4.20;;;10.30;99.90;;;;;;5025617;28;20071;-67
2023/10/12 04:21:15;;;;;;;6.32;4.07;;;10.30;99.90;;;;;;5031935;28;20036;-67
2023/10/12 04:28:58;;;;;;;8.98;6.82;;;10.30;99.90;;;;;;5024555;28;20610;-67
2023/10/12 04:31:34;;;;;;;7.93;6.65;;;10.40;99.90;;;;;;5022127;28;20041;-67
2023/10/12 04:36:44;;;;;;;9.95;7.25;;;10.50;99.90;;;;;;5033082;28;20978;-67
2023/10/12 04:46:59;;;;;;;11.02;6.03;;;10.70;99.90;;;;;;5022202;28;20053;-66
2023/10/12 04:52:16;;;;;;;7.50;4.07;;;10.60;99.90;;;;;;5027853;28;20047;-66
2023/10/12 04:57:27;;;;;;;7.28;3.50;;;10.40;99.90;;;;;;5027738;28;20048;-66
2023/10/12 05:07:57;;;;;;;5.75;5.13;;;10.10;99.90;;;;;;5027018;28;20056;-67
2023/10/12 05:10:46;;;;;;;9.40;5.38;;;10.10;99.90;;;;;;5000563;28;20970;-67
2023/10/12 05:13:19;;;;;;;12.70;5.90;;;10.20;99.90;;;;;;5018966;28;20264;-68
2023/10/12 05:15:54;;;;;;;7.47;5.80;;;10.20;99.90;;;;;;5017984;28;20167;-68
2023/10/12 05:18:24;;;;;;;7.55;6.45;;;10.30;99.90;;;;;;5022567;28;20054;-67
2023/10/12 05:20:51;;;;;;;7.95;5.25;;;10.40;99.90;;;;;;5021790;28;20423;-67
2023/10/12 05:23:17;;;;;;;9.73;6.30;;;10.40;99.90;;;;;;5013218;28;20569;-67
2023/10/12 05:28:21;;;;;;;13.25;6.95;;;10.40;99.90;;;;;;5000988;28;20068;-67
2023/10/12 05:30:55;;;;;;;12.27;7.03;;;10.50;99.90;;;;;;5015796;28;20041;-67
2023/10/12 05:36:17;;;;;;;4.40;4.00;;;10.60;99.90;;;;;;5027612;28;20411;-67
2023/10/12 05:38:51;;;;;;;7.60;3.58;;;10.50;99.90;;;;;;5028242;28;20029;-68
2023/10/12 05:44:18;;;;;;;4.90;4.40;;;10.40;99.90;;;;;;4948265;28;20149;-68
2023/10/12 05:46:45;;;;;;;6.00;4.65;;;10.30;99.90;;;;;;4951038;28;20042;-68
2023/10/12 05:49:13;;;;;;;7.00;4.75;;;10.30;99.90;;;;;;4941281;28;20038;-68
2023/10/12 05:51:45;;;;;;;7.40;5.07;;;10.40;99.90;;;;;;4940806;28;20432;-68
2023/10/12 05:54:15;;;;;;;6.88;4.43;;;10.40;99.90;;;;;;4938093;28;20493;-67
2023/10/12 05:56:42;;;;;;;8.57;5.28;;;10.50;99.90;;;;;;4949391;28;20098;-68
2023/10/12 05:59:12;;;;;;;6.90;5.40;;;10.50;99.90;;;;;;4945184;28;20042;-66
2023/10/12 06:01:45;;;;;;;7.40;5.75;;;10.50;99.90;;;;;;4941960;28;20444;-67
2023/10/12 06:04:14;;;;;;;6.25;5.28;;;10.60;99.90;;;;;;4950740;28;20057;-68
2023/10/12 06:06:44;;;;;;;11.25;5.68;;;10.70;99.90;;;;;;4939470;28;20046;-67
2023/10/12 06:09:13;;;;;;;7.25;6.07;;;10.70;99.90;;;;;;4930476;28;20027;-67
2023/10/12 06:11:42;;;;;;;8.60;6.20;;;10.80;99.90;;;;;;4947800;28;20692;-67
2023/10/12 06:14:09;;;;;;;10.38;6.22;;;10.90;99.90;;;;;;4953371;28;20050;-67
2023/10/12 06:16:39;;;;;;;9.25;5.60;;;10.90;99.90;;;;;;4949354;28;20089;-67
2023/10/12 06:19:05;;;;;;;11.30;6.65;;;11.00;99.90;;;;;;4946734;28;20045;-67
2023/10/12 06:21:42;;;;;;;6.90;6.20;;;11.10;99.90;;;;;;5021100;28;20041;-67
2023/10/12 06:24:11;;;;;;;8.35;6.22;;;11.20;99.90;;;;;;5022488;28;20796;-68
2023/10/12 06:26:38;;;;;;;7.95;6.95;;;11.20;99.90;;;;;;5023691;28;20238;-67
2023/10/12 06:29:07;;;;;;;16.70;6.50;;;11.30;99.90;;;;;;5031399;28;20056;-67
2023/10/12 06:31:33;;;;;;;7.18;6.47;;;11.40;99.90;;;;;;5024127;28;20072;-67
2023/10/12 06:34:02;;;;;;;8.75;6.65;;;11.50;99.90;;;;;;5028269;28;20044;-68
2023/10/12 06:36:38;;;;;;;9.35;7.82;;;11.70;99.90;;;;;;5029637;28;20034;-68
2023/10/12 06:44:28;;;;;;;10.63;7.75;;;12.10;99.90;;;;;;5030412;28;20064;-66
2023/10/12 06:46:57;;;;;;;11.13;7.78;;;12.30;99.90;;;;;;5032989;28;20049;-67
2023/10/12 06:49:24;;;;;;;9.48;7.97;;;12.50;99.90;;;;;;5034184;28;20052;-67
2023/10/12 06:52:01;;;;;;;10.18;7.82;;;12.60;99.90;;;;;;5037653;28;20037;-68
2023/10/12 07:02:33;;;;;;;17.17;8.60;;;13.60;99.90;;;;;;5022151;28;20124;-68
2023/10/12 07:05:04;;;;;;;9.38;6.78;;;13.80;99.90;;;;;;5024349;28;20037;-67
2023/10/12 07:07:36;;;;;;;8.90;7.00;;;14.10;99.90;;;;;;5020809;28;20119;-67
2023/10/12 07:12:48;;;;;;;6.78;6.07;;;14.70;99.90;;;;;;5022372;28;20041;-67
2023/10/12 07:15:20;;;;;;;7.88;5.85;;;15.10;99.90;;;;;;5028119;28;20076;-67
2023/10/12 07:17:49;;;;;;;7.90;5.80;;;15.40;99.90;;;;;;5014765;28;20038;-67
2023/10/12 07:20:40;;;;;;;10.40;5.32;;;15.60;99.90;;;;;;5015430;28;20502;-67
2023/10/12 07:23:16;;;;;;;23.45;6.75;;;15.80;99.90;;;;;;5024977;28;20674;-67
2023/10/12 07:25:48;;;;;;;9.45;5.38;;;16.10;99.90;;;;;;5015170;28;20142;-67
2023/10/12 07:28:18;;;;;;;;;;;16.30;99.90;;;;;;5035928;28;20128;-67
2023/10/12 07:31:04;;;;;;;11.23;6.55;;;16.60;99.90;;;;;;5028073;28;20019;-67
2023/10/12 07:33:32;;;;;;;9.20;5.97;;;16.80;99.90;;;;;;5031626;28;20504;-67
2023/10/12 07:36:08;;;;;;;8.23;5.50;;;17.00;99.90;;;;;;5040912;28;20041;-67
2023/10/12 07:38:37;;;;;;;6.32;4.82;;;17.10;99.90;;;;;;5036076;28;20040;-68
2023/10/12 07:41:09;;;;;;;9.63;5.03;;;17.30;99.90;;;;;;5036289;28;20028;-68
2023/10/12 07:43:38;;;;;;;7.97;5.07;;;17.40;99.90;;;;;;5007336;28;20421;-68
2023/10/12 07:46:13;;;;;;;6.57;5.28;;;17.50;99.90;;;;;;5013062;28;20117;-67
2023/10/12 07:48:42;;;;;;;8.48;5.15;;;17.60;99.90;;;;;;5010033;28;20124;-67
2023/10/12 07:51:15;;;;;;;6.05;4.80;;;17.60;99.90;;;;;;5013912;28;20029;-67
2023/10/12 07:53:45;;;;;;;7.43;4.32;;;17.70;99.90;;;;;;4999471;28;20103;-65
2023/10/12 07:56:16;;;;;;;9.45;5.30;;;17.80;99.90;;;;;;5015985;28;20045;-63
2023/10/12 07:58:50;;;;;;;7.82;5.38;;;18.00;99.90;;;;;;5015277;28;20033;-68
2023/10/12 08:01:22;;;;;;;6.05;4.93;;;18.20;99.90;;;;;;5005506;28;20823;-67
2023/10/12 08:03:50;;;;;;;7.68;5.25;;;18.40;99.90;;;;;;5014669;28;20100;-67
2023/10/12 08:06:27;;;;;;;8.02;4.97;;;18.50;99.90;;;;;;5018526;28;20052;-68
2023/10/12 08:09:02;;;;;;;5.53;4.78;;;18.70;99.90;;;;;;5006625;28;20117;-68
2023/10/12 08:11:28;;;;;;;9.25;4.90;;;18.70;99.90;;;;;;5017265;28;20045;-68
2023/10/12 08:13:55;;;;;;;6.50;4.30;;;18.90;99.90;;;;;;5018396;28;20056;-68
2023/10/12 08:16:28;;;;;;;7.55;4.82;;;18.80;99.90;;;;;;5018304;28;20028;-68
2023/10/12 08:29:17;;;;;;;6.03;4.20;;;19.10;99.90;;;;;;5019785;28;20049;-68
2023/10/12 08:31:45;;;;;;;;;;;19.20;99.90;;;;;;5013777;28;20113;-68
2023/10/12 08:34:41;;;;;;;5.90;4.55;;;19.30;99.90;;;;;;5018033;28;19936;-68
2023/10/12 08:39:38;;;;;;;5.35;4.28;;;19.40;99.90;;;;;;5011418;28;20034;-68
2023/10/12 08:44:58;;;;;;;7.72;4.70;;;19.60;99.90;;;;;;5010937;28;20044;-69
2023/10/12 08:47:44;;;;;;;5.43;3.63;;;19.60;99.90;;;;;;5017527;28;20572;-69
2023/10/12 08:52:52;;;;;;;4.43;3.58;;;19.80;99.90;;;;;;5004421;28;20600;-66
2023/10/12 08:55:24;;;;;;;7.93;4.20;;;19.80;99.90;;;;;;5013579;28;20048;-70
2023/10/12 08:58:11;;;;;;;5.20;3.83;;;19.80;99.90;;;;;;5012911;28;20867;-69
2023/10/12 09:03:38;;;;;;;5.45;4.07;;;19.80;99.90;;;;;;5008179;28;20048;-70
2023/10/12 09:06:19;;;;;;;8.80;3.97;;;19.90;99.90;;;;;;5015016;28;20140;-70
2023/10/12 09:08:46;;;;;;;6.68;3.70;;;20.00;99.90;;;;;;5015242;28;20046;-70
2023/10/12 09:13:45;;;;;;;5.32;4.28;;;20.10;99.90;;;;;;5013090;28;20481;-70
2023/10/12 09:16:11;;;;;;;7.50;3.97;;;20.20;99.90;;;;;;5003660;28;20561;-70
2023/10/12 09:18:47;;;;;;;7.53;4.10;;;20.20;99.90;;;;;;5011706;28;20128;-70
2023/10/12 09:23:52;;;;;;;5.75;4.30;;;20.20;99.90;;;;;;5017443;28;20041;-69
2023/10/12 09:26:30;;;;;;;6.03;4.45;;;20.40;99.90;;;;;;5013757;28;20752;-70
2023/10/12 09:36:55;;;;;;;6.30;3.63;;;20.80;99.90;;;;;;5016514;28;20036;-69
2023/10/12 09:39:25;;;;;;;5.68;4.18;;;20.90;99.90;;;;;;5007720;28;20072;-68
2023/10/12 09:42:09;;;;;;;6.70;3.90;;;21.10;99.90;;;;;;5007348;28;20108;-69
2023/10/12 09:44:37;;;;;;;9.35;3.95;;;21.10;99.90;;;;;;5010598;28;20038;-69
2023/10/12 09:47:09;;;;;;;5.80;3.58;;;21.20;99.90;;;;;;5017149;28;20025;-68
2023/10/12 09:49:39;;;;;;;6.72;3.80;;;21.20;99.90;;;;;;5017365;28;20036;-69
2023/10/12 09:52:13;;;;;;;4.78;3.67;;;21.20;99.90;;;;;;5015494;28;20046;-69
2023/10/12 09:55:06;;;;;;;5.60;3.45;;;21.30;99.90;;;;;;4997745;28;20526;-68
2023/10/12 09:57:36;;;;;;;7.60;3.90;;;21.40;99.90;;;;;;5016291;28;20197;-68
2023/10/12 10:02:50;;;;;;;5.20;3.60;;;21.70;99.90;;;;;;5012005;28;20319;-68
2023/10/12 10:07:53;;;;;;;5.10;4.60;;;21.90;99.90;;;;;;5014751;28;20116;-68
2023/10/12 10:10:34;;;;;;;6.20;3.60;;;21.90;99.90;;;;;;5014440;28;20107;-68
2023/10/12 10:13:08;;;;;;;7.82;3.75;;;22.00;99.90;;;;;;5017574;28;20037;-68
2023/10/12 10:15:55;;;;;;;5.70;3.50;;;22.10;99.90;;;;;;5013303;28;20134;-66
2023/10/12 10:18:25;;;;;;;7.45;3.75;;;22.10;99.90;;;;;;5016034;28;20116;-67
2023/10/12 10:20:57;;;;;;;7.50;4.13;;;22.10;99.90;;;;;;5012605;28;20041;-67
2023/10/12 10:23:25;;;;;;;;;;;22.20;99.90;;;;;;5003342;28;20112;-68
2023/10/12 10:25:56;;;;;;;3.95;3.38;;;22.40;99.90;;;;;;5014911;28;19916;-67
2023/10/12 10:28:33;;;;;;;5.60;3.58;;;22.50;99.90;;;;;;5014203;28;20041;-67
2023/10/12 10:31:03;;;;;;;5.55;3.88;;;22.60;99.90;;;;;;4993379;28;20030;-67
2023/10/12 10:33:36;;;;;;;7.07;4.13;;;22.60;99.90;;;;;;5015323;28;20073;-67
2023/10/12 10:36:10;;;;;;;8.20;4.20;;;22.60;99.90;;;;;;5011499;28;20038;-67
2023/10/12 10:38:46;;;;;;;3.55;2.90;;;22.70;99.90;;;;;;5014437;28;20042;-68
2023/10/12 10:41:18;;;;;;;9.00;3.50;;;22.90;99.90;;;;;;5005846;28;20126;-68
2023/10/12 10:43:45;;;;;;;4.45;3.58;;;22.90;99.90;;;;;;5012906;28;20566;-68
2023/10/12 10:46:13;;;;;;;6.78;3.92;;;22.90;99.90;;;;;;4995939;28;20144;-68
2023/10/12 10:48:40;;;;;;;6.22;3.78;;;23.00;99.90;;;;;;4995331;28;20141;-67
2023/10/12 10:51:42;;;;;;;3.95;3.13;;;23.20;99.90;;;;;;5013383;28;20042;-68
2023/10/12 10:53:59;;;;;;;7.25;3.47;;;23.40;99.90;;;;;;5002730;28;20088;-68
2023/10/12 10:56:38;;;;;;;5.57;3.53;;;23.50;99.90;;;;;;5012041;28;20385;-69
2023/10/12 10:59:11;;;;;;;4.43;3.42;;;23.60;99.90;;;;;;5011418;28;20052;-68
2023/10/12 11:01:40;;;;;;;4.70;3.53;;;23.80;99.90;;;;;;5003000;28;20477;-68
2023/10/12 11:04:17;;;;;;;4.75;3.67;;;23.70;99.90;;;;;;5002499;28;20045;-68
2023/10/12 11:06:47;;;;;;;4.80;3.35;;;23.70;99.90;;;;;;5012863;28;20049;-68
2023/10/12 11:09:15;;;;;;;8.57;4.75;;;23.80;99.90;;;;;;4998442;28;20033;-67
2023/10/12 11:11:52;;;;;;;5.95;3.58;;;23.90;99.90;;;;;;5011266;28;20053;-67
2023/10/12 11:14:22;;;;;;;6.18;3.28;;;23.90;99.90;;;;;;5011702;28;20053;-68
2023/10/12 11:16:48;;;;;;;5.28;3.30;;;24.00;99.90;;;;;;5011716;28;20038;-67
2023/10/12 11:19:14;;;;;;;6.95;3.80;;;24.00;99.90;;;;;;5013024;28;20675;-67
2023/10/12 11:21:51;;;;;;;9.23;4.30;;;24.10;99.90;;;;;;5011441;28;20133;-67
2023/10/12 11:24:18;;;;;;;7.22;4.38;;;24.10;99.90;;;;;;5002866;28;20502;-67
2023/10/12 11:26:54;;;;;;;5.93;3.50;;;24.20;99.90;;;;;;5015013;28;20037;-69
2023/10/12 11:29:22;;;;;;;5.10;3.60;;;24.30;99.90;;;;;;5018024;28;20041;-69
2023/10/12 11:32:11;;;;;;;5.40;4.07;;;24.40;99.90;;;;;;5019112;28;20029;-69
2023/10/12 11:34:53;;;;;;;6.78;3.78;;;24.40;99.90;;;;;;5014816;28;20056;-69
2023/10/12 11:37:20;;;;;;;7.65;3.88;;;24.50;99.90;;;;;;5017049;28;20037;-68
2023/10/12 11:39:52;;;;;;;6.85;4.20;;;24.20;99.90;;;;;;5022286;28;20041;-69
2023/10/12 11:42:18;;;;;;;5.95;3.78;;;24.20;99.90;;;;;;5012930;28;20045;-68
2023/10/12 11:44:46;;;;;;;7.10;4.00;;;24.20;99.90;;;;;;5027736;28;20033;-67
2023/10/12 11:47:37;;;;;;;7.47;4.10;;;24.10;99.90;;;;;;5030361;28;20037;-67
2023/10/12 11:50:04;;;;;;;5.85;3.95;;;24.10;99.90;;;;;;5034977;28;20457;-67
2023/10/12 11:52:32;;;;;;;8.68;3.95;;;24.20;99.90;;;;;;5018499;28;20699;-67
2023/10/12 11:55:18;;;;;;;9.02;4.43;;;24.30;99.90;;;;;;5014656;28;20056;-67
2023/10/12 11:57:49;;;;;;;6.40;4.20;;;24.30;99.90;;;;;;5032727;28;21722;-67
2023/10/12 12:02:47;;;;;;;9.18;4.82;;;24.30;99.90;;;;;;5029893;28;20044;-68
2023/10/12 12:05:13;;;;;;;7.50;4.07;;;24.20;99.90;;;;;;5029631;28;20021;-69
2023/10/12 12:07:39;;;;;;;10.02;4.13;;;24.20;99.90;;;;;;5021063;28;20163;-69
2023/10/12 12:10:07;;;;;;;8.57;3.97;;;24.30;99.90;;;;;;5022044;28;20037;-68
2023/10/12 12:12:38;;;;;;;8.10;4.15;;;24.30;99.90;;;;;;5018398;28;20039;-68
2023/10/12 12:15:04;;;;;;;7.05;4.40;;;24.40;99.90;;;;;;5019598;28;20387;-69
2023/10/12 12:17:30;;;;;;;6.65;3.80;;;24.50;99.90;;;;;;5023139;28;20037;-69
2023/10/12 12:19:56;;;;;;;5.18;3.97;;;24.60;99.90;;;;;;5035281;28;20043;-69
2023/10/12 12:22:23;;;;;;;7.88;4.00;;;24.70;99.90;;;;;;5021514;28;20037;-70
2023/10/12 12:24:49;;;;;;;5.70;3.95;;;24.60;99.90;;;;;;5016430;28;20045;-71
2023/10/12 12:29:59;;;;;;;11.55;4.78;;;24.70;99.90;;;;;;5027926;28;20071;-70
2023/10/12 12:32:26;;;;;;;5.65;3.95;;;24.70;99.90;;;;;;5037248;28;20054;-70
2023/10/12 12:34:54;;;;;;;5.57;3.92;;;24.80;99.90;;;;;;5034857;28;20100;-71
2023/10/12 12:37:20;;;;;;;8.38;5.10;;;24.80;99.90;;;;;;5034976;28;20112;-70
2023/10/12 12:40:14;;;;;;;8.73;4.50;;;24.80;99.90;;;;;;5033678;28;20103;-71
2023/10/12 12:42:37;;;;;;;5.53;3.80;;;24.90;99.90;;;;;;5035510;28;20558;-71
2023/10/12 12:45:03;;;;;;;9.68;3.95;;;25.00;99.90;;;;;;5027813;28;20033;-70
2023/10/12 12:47:32;;;;;;;7.40;3.58;;;25.00;99.90;;;;;;5013925;28;20033;-71
2023/10/12 12:50:01;;;;;;;5.65;2.97;;;25.00;99.90;;;;;;5037891;28;20033;-70
2023/10/12 12:52:27;;;;;;;6.13;3.15;;;25.00;99.90;;;;;;5029188;28;20088;-69
2023/10/12 12:54:53;;;;;;;6.88;4.30;;;25.10;99.90;;;;;;5038011;28;20057;-69
2023/10/12 12:57:18;;;;;;;6.03;4.00;;;25.20;99.90;;;;;;5031391;28;20386;-69
2023/10/12 12:59:44;;;;;;;8.50;4.00;;;25.20;99.90;;;;;;5024419;28;20063;-67
2023/10/12 13:02:09;;;;;;;6.32;3.88;;;25.30;99.90;;;;;;5026791;28;20032;-68
2023/10/12 13:04:35;;;;;;;4.07;3.25;;;25.30;99.90;;;;;;5013927;28;20490;-68
2023/10/12 13:07:08;;;;;;;8.35;3.63;;;25.30;99.80;;;;;;5014321;28;20057;-68
2023/10/12 13:09:36;;;;;;;7.85;3.15;;;25.30;99.60;;;;;;5035288;28;20047;-68
2023/10/12 13:12:05;;;;;;;5.43;3.30;;;25.30;99.70;;;;;;5017195;28;20759;-67
2023/10/12 13:14:31;;;;;;;5.05;3.20;;;25.40;99.50;;;;;;5035966;28;20100;-68
2023/10/12 13:16:57;;;;;;;6.53;4.00;;;25.50;99.00;;;;;;5037416;28;20064;-68
2023/10/12 13:19:24;;;;;;;6.07;3.38;;;25.50;99.30;;;;;;5014446;28;20765;-68
2023/10/12 13:21:50;;;;;;;5.63;3.45;;;25.50;99.00;;;;;;5035350;28;20033;-69
2023/10/12 13:24:16;;;;;;;7.70;4.03;;;25.60;98.70;;;;;;5026696;28;20176;-68
2023/10/12 13:26:44;;;;;;;8.55;3.67;;;25.80;98.60;;;;;;5012045;28;20045;-68
2023/10/12 13:29:13;;;;;;;6.00;3.40;;;25.80;98.70;;;;;;5030483;28;20045;-69
2023/10/12 13:31:40;;;;;;;9.25;3.60;;;25.90;98.70;;;;;;5034152;28;20034;-69
2023/10/12 13:34:05;;;;;;;5.07;3.58;;;25.90;98.00;;;;;;5030691;28;20190;-69
2023/10/12 13:36:34;;;;;;;4.05;3.45;;;25.90;98.10;;;;;;5037349;28;20036;-69
2023/10/12 13:39:00;;;;;;;8.32;3.78;;;25.90;97.70;;;;;;5020314;28;20533;-70
2023/10/12 13:41:26;;;;;;;9.95;4.10;;;26.00;97.70;;;;;;5037460;28;20030;-70
2023/10/12 13:43:52;;;;;;;8.10;3.30;;;26.10;97.30;;;;;;5031903;28;20072;-70
2023/10/12 13:46:18;;;;;;;5.03;3.13;;;26.10;97.30;;;;;;5016958;28;20024;-70
2023/10/12 13:48:47;;;;;;;5.63;3.72;;;26.10;97.50;;;;;;5019899;28;20033;-70
2023/10/12 13:51:23;;;;;;;8.15;4.68;;;26.10;97.50;;;;;;5017439;28;20064;-70
2023/10/12 13:53:50;;;;;;;6.85;3.80;;;26.10;97.70;;;;;;5021884;28;20118;-71
2023/10/12 13:56:16;;;;;;;5.13;3.40;;;26.20;97.20;;;;;;5018445;28;20125;-71
2023/10/12 13:58:45;;;;;;;7.13;3.30;;;26.30;97.00;;;;;;5020964;28;20196;-71
2023/10/12 14:01:14;;;;;;;11.05;3.97;;;26.20;97.10;;;;;;5027231;28;20048;-71
2023/10/12 14:03:50;;;;;;;7.35;3.63;;;26.20;96.70;;;;;;5019495;28;20037;-71
2023/10/12 14:06:16;;;;;;;7.05;3.80;;;26.20;96.70;;;;;;5033436;28;20049;-71
2023/10/12 14:08:42;;;;;;;6.53;3.40;;;26.20;96.80;;;;;;5024017;28;20059;-71
2023/10/12 14:11:14;;;;;;;6.70;3.63;;;26.20;96.30;;;;;;5034339;28;20112;-71
2023/10/12 14:13:40;;;;;;;8.20;3.63;;;26.20;96.30;;;;;;5030899;28;20044;-70
2023/10/12 14:16:09;;;;;;;5.72;3.20;;;26.20;95.70;;;;;;5013599;28;20041;-67
2023/10/12 14:18:35;;;;;;;3.83;3.20;;;26.40;96.10;;;;;;5023727;28;20094;-71
2023/10/12 14:21:01;;;;;;;6.97;3.47;;;26.50;96.40;;;;;;5033935;28;20127;-71
2023/10/12 14:23:26;;;;;;;3.85;3.05;;;26.60;95.90;;;;;;5023816;28;20039;-65
2023/10/12 14:25:54;;;;;;;5.28;2.58;;;26.80;95.20;;;;;;5018162;28;20036;-66
2023/10/12 14:28:20;;;;;;;9.02;3.00;;;27.30;94.10;;;;;;5012317;28;20088;-70
2023/10/12 14:30:50;;;;;;;11.02;4.15;;;28.70;93.50;;;;;;4997989;28;20196;-72
2023/10/12 14:33:19;;;;;;;5.68;2.90;;;31.00;90.30;;;;;;5005976;28;20188;-72
2023/10/12 14:35:46;;;;;;;12.07;3.75;;;32.80;85.40;;;;;;5031559;28;20047;-72
2023/10/12 14:38:14;;;;;;;24.63;4.00;;;34.00;78.60;;;;;;5022512;28;20161;-72
2023/10/12 14:40:44;;;;;;;11.32;3.88;;;34.70;74.00;;;;;;5023224;28;20072;-73
2023/10/12 14:43:15;;;;;;;4.68;3.13;;;35.20;68.50;;;;;;5010971;28;20445;-72
2023/10/12 14:45:48;;;;;;;23.98;3.45;;;35.60;62.50;;;;;;5005940;28;20229;-72
2023/10/12 14:48:16;;;;;;;4.55;3.22;;;34.90;62.80;;;;;;5006633;28;20406;-73
2023/10/12 14:50:45;;;;;;;10.88;3.47;;;34.30;62.80;;;;;;5004926;28;20038;-73
2023/10/12 14:53:15;;;;;;;7.82;2.90;;;34.10;64.00;;;;;;5008697;28;20630;-72
2023/10/12 14:55:48;;;;;;;4.00;2.80;;;34.20;62.70;;;;;;5011545;28;20675;-75
2023/10/12 14:58:16;;;;;;;4.80;2.50;;;34.30;61.30;;;;;;5012106;28;20032;-73
2023/10/12 15:00:45;;;;;;;7.53;3.30;;;33.80;61.60;;;;;;4985804;28;20131;-73
2023/10/12 15:03:23;;;;;;;7.43;2.70;;;33.40;62.10;;;;;;5008080;28;21008;-73
2023/10/12 15:05:53;;;;;;;10.82;3.10;;;33.00;63.50;;;;;;5010092;28;20123;-71
2023/10/12 15:08:26;;;;;;;8.23;2.42;;;33.00;64.00;;;;;;5002894;28;20046;-73
2023/10/12 15:10:56;;;;;;;9.20;3.08;;;32.60;62.70;;;;;;5010199;28;20056;-72
2023/10/12 15:13:28;;;;;;;5.95;3.22;;;32.20;65.40;;;;;;5012546;28;20072;-72
2023/10/12 15:15:54;;;;;;;11.88;3.13;;;32.10;65.60;;;;;;5011963;28;20061;-73
2023/10/12 15:18:24;;;;;;;6.78;3.10;;;32.10;66.20;;;;;;5014986;28;20590;-73
2023/10/12 15:20:52;;;;;;;4.80;2.80;;;31.90;65.80;;;;;;4987204;28;20733;-70
2023/10/12 15:23:19;;;;;;;11.32;3.03;;;31.70;65.90;;;;;;5015831;28;20021;-68
2023/10/12 15:25:45;;;;;;;12.48;3.25;;;31.40;66.60;;;;;;5008990;28;20064;-68
2023/10/12 15:28:11;;;;;;;9.45;3.45;;;31.00;67.50;;;;;;5014473;28;20129;-69
2023/10/12 15:30:46;;;;;;;8.48;3.05;;;30.50;68.60;;;;;;5015720;28;20072;-69
2023/10/12 15:33:11;;;;;;;4.65;2.95;;;29.70;71.10;;;;;;5013801;28;20060;-69